Time;durP1;ratioP1;P1;durP2;ratioP2;P2;SDS_P1;SDS_P2;PMS_P1;PMS_P2;Temp;Humidity;BMP_temperature;BMP_pressure;BME280_temperature;BME280_humidity;BME280_pressure;Samples;Min_cycle;Max_cycle;Signal;HPM_P1;HPM_P2
2022/11/07 00:02:11;;;;;;;5.88;3.83;;;10.20;99.90;;;;;;5116672;28;20039;-67
2022/11/07 00:04:37;;;;;;;5.97;3.78;;;10.60;99.90;;;;;;5100066;28;20447;-66
2022/11/07 00:07:03;;;;;;;7.13;3.92;;;10.00;99.90;;;;;;5116531;28;20106;-66
2022/11/07 00:09:29;;;;;;;4.78;4.20;;;10.10;99.90;;;;;;5099484;28;20047;-66
2022/11/07 00:11:55;;;;;;;7.32;4.32;;;10.30;99.90;;;;;;5117612;28;20048;-66
2022/11/07 00:14:21;;;;;;;5.50;3.80;;;10.00;99.90;;;;;;5118225;27;20075;-66
2022/11/07 00:16:47;;;;;;;5.82;4.03;;;10.30;99.90;;;;;;5137780;27;20536;-66
2022/11/07 00:19:16;;;;;;;7.63;4.07;;;10.10;99.90;;;;;;5119797;27;20050;-67
2022/11/07 00:21:42;;;;;;;5.82;3.83;;;10.10;99.90;;;;;;5120247;27;20436;-67
2022/11/07 00:24:09;;;;;;;6.32;4.10;;;10.10;99.90;;;;;;5102921;27;20047;-66
2022/11/07 00:26:35;;;;;;;6.43;3.50;;;10.30;99.90;;;;;;5119676;27;20394;-66
2022/11/07 00:29:01;;;;;;;5.68;4.13;;;10.20;99.90;;;;;;5119473;27;20058;-66
2022/11/07 00:31:27;;;;;;;6.20;3.67;;;10.20;99.90;;;;;;5137052;27;20046;-66
2022/11/07 00:33:53;;;;;;;4.57;3.60;;;10.40;99.90;;;;;;5119060;27;20043;-66
2022/11/07 00:36:22;;;;;;;4.63;3.90;;;10.10;99.90;;;;;;5085792;27;20042;-66
2022/11/07 00:38:48;;;;;;;6.15;3.65;;;10.50;99.90;;;;;;5137772;27;20043;-66
2022/11/07 00:41:14;;;;;;;7.20;3.75;;;10.60;99.90;;;;;;5102446;27;20502;-66
2022/11/07 00:43:40;;;;;;;7.38;3.90;;;10.50;99.90;;;;;;5137677;27;20078;-66
2022/11/07 00:46:07;;;;;;;8.13;4.10;;;10.70;99.90;;;;;;5137280;27;20135;-66
2022/11/07 00:48:33;;;;;;;6.15;3.90;;;10.40;99.90;;;;;;5119103;27;20511;-66
2022/11/07 00:51:14;;;;;;;8.05;4.30;;;10.40;99.90;;;;;;5137732;27;20134;-66
2022/11/07 00:53:40;;;;;;;6.07;3.40;;;10.60;99.90;;;;;;5137356;27;20046;-66
2022/11/07 00:56:09;;;;;;;7.88;3.58;;;10.40;99.90;;;;;;5137302;27;20047;-66
2022/11/07 00:58:35;;;;;;;6.85;3.67;;;10.40;99.90;;;;;;5118668;27;20058;-66
2022/11/07 01:01:31;;;;;;;7.55;4.10;;;10.50;99.90;;;;;;5118327;27;20073;-66
2022/11/07 01:06:43;;;;;;;6.93;3.30;;;10.70;99.90;;;;;;5136985;27;20138;-66
2022/11/07 01:09:11;;;;;;;6.53;3.95;;;10.50;99.90;;;;;;5118761;27;20446;-66
2022/11/07 01:11:38;;;;;;;6.05;3.22;;;10.80;99.90;;;;;;5137057;27;20409;-66
2022/11/07 01:14:04;;;;;;;5.88;3.28;;;10.50;99.90;;;;;;5118824;27;20130;-66
2022/11/07 01:16:30;;;;;;;6.05;3.50;;;10.60;99.90;;;;;;5136548;27;20047;-66
2022/11/07 01:18:56;;;;;;;6.15;3.35;;;10.60;99.90;;;;;;5118851;27;20080;-66
2022/11/07 01:21:22;;;;;;;7.72;4.22;;;10.70;99.90;;;;;;5136773;27;20108;-66
2022/11/07 01:23:48;;;;;;;7.80;3.40;;;11.10;99.90;;;;;;5136565;27;20436;-66
2022/11/07 01:26:15;;;;;;;7.07;3.30;;;10.80;99.90;;;;;;5136829;27;20045;-66
2022/11/07 01:28:41;;;;;;;5.50;3.53;;;10.70;99.90;;;;;;5118657;27;20051;-66
2022/11/07 01:31:10;;;;;;;5.80;3.40;;;10.70;99.90;;;;;;5136333;27;20047;-66
2022/11/07 01:33:37;;;;;;;4.43;2.80;;;10.60;99.90;;;;;;5101651;27;20439;-67
2022/11/07 01:36:07;;;;;;;8.18;2.92;;;11.00;99.90;;;;;;5136395;27;20078;-66
2022/11/07 01:38:35;;;;;;;7.68;3.60;;;10.60;99.90;;;;;;5137121;27;20402;-66
2022/11/07 01:43:46;;;;;;;6.18;2.75;;;10.70;99.90;;;;;;5103778;27;20058;-66
2022/11/07 01:46:12;;;;;;;6.15;3.38;;;10.90;99.90;;;;;;5136249;27;20505;-66
2022/11/07 01:48:40;;;;;;;5.18;3.08;;;10.70;99.90;;;;;;5136072;27;20051;-67
2022/11/07 01:51:06;;;;;;;7.85;3.50;;;11.00;99.90;;;;;;5137028;27;20047;-67
2022/11/07 01:53:34;;;;;;;5.13;2.60;;;10.80;99.90;;;;;;5084410;27;20475;-67
2022/11/07 01:56:00;;;;;;;5.75;2.72;;;10.80;99.90;;;;;;5136136;27;20406;-67
2022/11/07 01:58:26;;;;;;;5.68;3.10;;;11.10;99.90;;;;;;5101208;27;20050;-67
2022/11/07 02:00:52;;;;;;;5.50;2.60;;;10.80;99.90;;;;;;5135649;27;20043;-66
2022/11/07 02:03:19;;;;;;;6.57;2.63;;;10.70;99.90;;;;;;5117660;27;20086;-67
2022/11/07 02:05:52;;;;;;;7.55;3.13;;;10.80;99.90;;;;;;5136343;27;20095;-67
2022/11/07 02:08:20;;;;;;;5.88;2.58;;;10.90;99.90;;;;;;5136312;27;20080;-66
2022/11/07 02:10:46;;;;;;;6.35;3.05;;;10.80;99.90;;;;;;5117051;27;20068;-66
2022/11/07 02:13:18;;;;;;;7.78;3.08;;;10.90;99.90;;;;;;5117296;27;20043;-66
2022/11/07 02:15:44;;;;;;;7.20;2.90;;;10.90;99.90;;;;;;5096907;28;20091;-67
2022/11/07 02:18:10;;;;;;;6.03;2.80;;;10.80;99.90;;;;;;5113967;28;20101;-65
2022/11/07 02:20:36;;;;;;;5.40;2.92;;;10.90;99.90;;;;;;5080722;28;20043;-66
2022/11/07 02:23:10;;;;;;;6.80;2.58;;;10.90;99.90;;;;;;5114167;28;20051;-66
2022/11/07 02:25:36;;;;;;;6.18;2.60;;;11.00;99.90;;;;;;5115313;28;20104;-66
2022/11/07 02:28:06;;;;;;;4.43;2.70;;;10.80;99.90;;;;;;5113913;28;20083;-67
2022/11/07 02:30:33;;;;;;;6.97;2.83;;;10.90;99.90;;;;;;5114211;28;20075;-67
2022/11/07 02:32:59;;;;;;;7.68;2.90;;;11.00;99.90;;;;;;5114990;28;20445;-66
2022/11/07 02:35:46;;;;;;;6.68;3.20;;;10.90;99.90;;;;;;5113681;28;20051;-66
2022/11/07 02:38:22;;;;;;;6.85;2.60;;;10.80;99.90;;;;;;5114914;28;20043;-66
2022/11/07 02:40:55;;;;;;;6.13;2.60;;;10.90;99.90;;;;;;5113744;28;20043;-67
2022/11/07 02:43:25;;;;;;;4.63;2.85;;;10.90;99.90;;;;;;5114016;28;20128;-66
2022/11/07 02:45:52;;;;;;;7.05;3.28;;;10.90;99.90;;;;;;5113767;28;20116;-67
2022/11/07 02:48:18;;;;;;;7.15;3.13;;;10.90;99.90;;;;;;5114521;28;20047;-66
2022/11/07 02:50:44;;;;;;;9.77;3.40;;;10.90;99.90;;;;;;5096466;28;20135;-66
2022/11/07 02:53:10;;;;;;;10.23;3.58;;;10.90;99.90;;;;;;5114564;27;20048;-66
2022/11/07 02:55:36;;;;;;;8.25;3.60;;;10.80;99.90;;;;;;5113270;28;20047;-66
2022/11/07 02:58:02;;;;;;;9.50;3.75;;;10.90;99.90;;;;;;5114083;28;20048;-66
2022/11/07 03:00:28;;;;;;;9.02;3.30;;;10.80;99.90;;;;;;5113771;28;20131;-67
2022/11/07 03:02:53;;;;;;;6.20;3.40;;;11.00;99.90;;;;;;5114242;28;20058;-66
2022/11/07 03:05:20;;;;;;;6.20;3.40;;;11.00;99.90;;;;;;5114449;28;20046;-66
2022/11/07 03:07:51;;;;;;;4.75;3.33;;;10.80;99.90;;;;;;5114287;28;20059;-66
2022/11/07 03:10:17;;;;;;;8.13;3.28;;;11.10;99.90;;;;;;5114390;28;20039;-66
2022/11/07 03:12:43;;;;;;;5.65;2.88;;;10.80;99.90;;;;;;5113864;28;20480;-67
2022/11/07 03:15:10;;;;;;;8.20;3.80;;;10.70;99.90;;;;;;5119753;27;20059;-66
2022/11/07 03:17:36;;;;;;;12.60;3.95;;;11.10;99.90;;;;;;5134578;27;20047;-66
2022/11/07 03:20:02;;;;;;;12.95;5.65;;;10.70;99.90;;;;;;5134411;27;20065;-65
2022/11/07 03:22:28;;;;;;;12.68;8.57;;;10.70;99.90;;;;;;5134035;27;20054;-66
2022/11/07 03:24:54;;;;;;;13.57;8.30;;;10.80;99.90;;;;;;5099332;27;20051;-66
2022/11/07 03:27:19;;;;;;;11.18;5.22;;;10.80;99.90;;;;;;5116648;27;20054;-66
2022/11/07 03:29:45;;;;;;;7.80;3.40;;;11.20;99.90;;;;;;5115537;28;20066;-67
2022/11/07 03:32:11;;;;;;;7.55;3.15;;;10.80;99.90;;;;;;5134566;27;20039;-66
2022/11/07 03:34:36;;;;;;;5.97;3.05;;;10.70;99.90;;;;;;5116044;27;20047;-66
2022/11/07 03:37:03;;;;;;;7.88;3.33;;;10.70;99.90;;;;;;5082381;28;20047;-67
2022/11/07 03:39:29;;;;;;;8.55;3.10;;;10.70;99.90;;;;;;5134126;27;20510;-66
2022/11/07 03:41:54;;;;;;;8.00;3.00;;;11.00;99.90;;;;;;5116313;28;20084;-67
2022/11/07 03:44:20;;;;;;;6.25;3.20;;;10.70;99.90;;;;;;5134397;28;20050;-66
2022/11/07 03:46:46;;;;;;;7.22;2.97;;;10.70;99.90;;;;;;5134228;28;20486;-66
2022/11/07 03:49:11;;;;;;;7.35;2.92;;;11.30;99.90;;;;;;5116067;28;20479;-67
2022/11/07 03:51:37;;;;;;;10.10;3.42;;;10.90;99.90;;;;;;5099183;28;20047;-67
2022/11/07 03:54:03;;;;;;;8.30;2.92;;;10.60;99.90;;;;;;5115685;28;20054;-66
2022/11/07 03:56:29;;;;;;;6.50;3.17;;;10.60;99.90;;;;;;5115940;28;20104;-66
2022/11/07 03:58:54;;;;;;;8.13;3.10;;;11.00;99.90;;;;;;5134128;28;20035;-66
2022/11/07 04:01:20;;;;;;;8.65;3.17;;;11.00;99.90;;;;;;5115597;28;20043;-66
2022/11/07 04:03:45;;;;;;;5.57;3.00;;;10.90;99.90;;;;;;5116203;28;20130;-67
2022/11/07 04:06:11;;;;;;;9.02;3.22;;;10.60;99.90;;;;;;5134146;28;20087;-66
2022/11/07 04:08:37;;;;;;;7.00;2.90;;;10.60;99.90;;;;;;5115653;28;20085;-67
2022/11/07 04:11:03;;;;;;;8.57;3.35;;;10.60;99.90;;;;;;5116349;28;20065;-67
2022/11/07 04:19:01;;;;;;;8.68;3.13;;;10.70;99.90;;;;;;5133962;28;20135;-67
2022/11/07 04:21:26;;;;;;;6.13;2.55;;;10.70;99.90;;;;;;5134105;28;20371;-67
2022/11/07 04:23:52;;;;;;;8.77;3.42;;;10.70;99.90;;;;;;5098761;28;20050;-67
2022/11/07 04:29:02;;;;;;;7.93;3.17;;;10.70;99.90;;;;;;5133906;28;20165;-67
2022/11/07 04:31:28;;;;;;;7.75;2.72;;;10.90;99.90;;;;;;5133207;28;20541;-67
2022/11/07 04:33:53;;;;;;;8.75;2.90;;;11.00;99.90;;;;;;5133845;27;20054;-67
2022/11/07 04:36:19;;;;;;;7.32;2.83;;;11.00;99.90;;;;;;5137613;27;20081;-68
2022/11/07 04:38:45;;;;;;;9.35;3.67;;;10.70;99.90;;;;;;5119753;27;20096;-67
2022/11/07 04:41:19;;;;;;;7.80;3.28;;;11.00;99.90;;;;;;5137653;27;20039;-67
2022/11/07 04:43:44;;;;;;;7.80;3.22;;;10.60;99.90;;;;;;5119327;27;20058;-67
2022/11/07 04:46:10;;;;;;;8.50;3.05;;;10.90;99.90;;;;;;5137261;27;20043;-67
2022/11/07 04:48:36;;;;;;;5.65;2.92;;;10.70;99.90;;;;;;5119155;27;20039;-66
2022/11/07 04:51:01;;;;;;;9.00;3.20;;;10.70;99.90;;;;;;5138143;27;20047;-67
2022/11/07 04:53:27;;;;;;;6.80;2.70;;;11.00;99.90;;;;;;5119326;27;20050;-66
2022/11/07 04:55:53;;;;;;;6.32;3.15;;;10.60;99.90;;;;;;5102068;27;20043;-66
2022/11/07 04:58:18;;;;;;;6.72;2.90;;;10.60;99.90;;;;;;5119297;27;20051;-66
2022/11/07 05:00:44;;;;;;;8.43;2.70;;;10.60;99.90;;;;;;5118376;27;20086;-67
2022/11/07 05:03:11;;;;;;;9.48;3.22;;;10.90;99.90;;;;;;5119087;27;20051;-66
2022/11/07 05:05:37;;;;;;;11.80;3.28;;;10.90;99.90;;;;;;5137465;27;20051;-67
2022/11/07 05:08:03;;;;;;;7.15;3.33;;;10.70;99.90;;;;;;5118806;27;20111;-67
2022/11/07 05:10:28;;;;;;;9.82;3.10;;;10.70;99.90;;;;;;5136927;27;20126;-66
2022/11/07 05:12:55;;;;;;;8.20;3.00;;;10.70;99.90;;;;;;5118805;27;20526;-67
2022/11/07 05:15:21;;;;;;;9.60;3.13;;;10.60;99.90;;;;;;5136843;27;20394;-66
2022/11/07 05:17:47;;;;;;;7.18;3.55;;;10.60;99.90;;;;;;5136942;27;20051;-67
2022/11/07 05:20:27;;;;;;;8.55;3.28;;;10.90;99.90;;;;;;5137043;27;20155;-66
2022/11/07 05:25:43;;;;;;;10.57;3.45;;;10.70;99.90;;;;;;5118484;27;20086;-67
2022/11/07 05:28:14;;;;;;;9.63;2.97;;;10.70;99.90;;;;;;5119111;27;20055;-67
2022/11/07 05:30:41;;;;;;;7.13;3.45;;;10.70;99.90;;;;;;5118565;27;20042;-67
2022/11/07 05:33:11;;;;;;;7.15;3.67;;;10.80;99.90;;;;;;5136872;27;20112;-66
2022/11/07 05:35:40;;;;;;;8.35;3.53;;;10.80;99.90;;;;;;5118829;27;20057;-66
2022/11/07 05:38:06;;;;;;;9.40;3.38;;;10.80;99.90;;;;;;5118386;27;20529;-67
2022/11/07 05:40:34;;;;;;;9.38;3.63;;;10.90;99.90;;;;;;5136704;27;20549;-66
2022/11/07 05:43:01;;;;;;;10.73;3.50;;;11.10;99.90;;;;;;5118555;27;20055;-66
2022/11/07 05:45:28;;;;;;;10.48;3.90;;;10.80;99.90;;;;;;5136465;27;20070;-66
2022/11/07 05:48:02;;;;;;;7.75;3.65;;;10.80;99.90;;;;;;5135973;27;20043;-66
2022/11/07 05:50:28;;;;;;;10.65;3.47;;;11.40;99.90;;;;;;5118064;27;20078;-67
2022/11/07 05:52:55;;;;;;;7.90;3.55;;;10.80;99.90;;;;;;5136309;27;20086;-66
2022/11/07 05:55:20;;;;;;;7.95;3.33;;;10.80;99.90;;;;;;5136336;27;20039;-67
2022/11/07 05:57:46;;;;;;;8.85;3.22;;;10.80;99.90;;;;;;5136281;27;20043;-66
2022/11/07 06:00:12;;;;;;;10.95;3.20;;;11.10;99.90;;;;;;5135722;27;20122;-67
2022/11/07 06:02:38;;;;;;;6.55;3.10;;;10.80;99.90;;;;;;5117678;27;20054;-66
2022/11/07 06:05:05;;;;;;;6.28;2.67;;;10.80;99.90;;;;;;5117647;27;20051;-67
2022/11/07 06:07:35;;;;;;;8.23;3.38;;;10.70;99.90;;;;;;5135776;27;20398;-67
2022/11/07 06:10:01;;;;;;;7.40;3.60;;;10.80;99.90;;;;;;5100702;27;20486;-67
2022/11/07 06:12:26;;;;;;;8.95;3.45;;;10.70;99.90;;;;;;5135988;27;20051;-67
2022/11/07 06:14:52;;;;;;;8.70;3.72;;;10.80;99.90;;;;;;5135696;27;20054;-67
2022/11/07 06:17:18;;;;;;;11.52;3.63;;;10.70;99.90;;;;;;5117218;27;20138;-67
2022/11/07 06:19:43;;;;;;;6.55;3.83;;;11.10;99.90;;;;;;5117387;27;20043;-67
2022/11/07 06:22:09;;;;;;;7.38;3.30;;;10.90;99.90;;;;;;5135543;27;20050;-67
2022/11/07 06:24:35;;;;;;;8.63;3.67;;;10.80;99.90;;;;;;5135597;27;20043;-67
2022/11/07 06:27:00;;;;;;;10.23;3.60;;;10.80;99.90;;;;;;5135556;27;20039;-67
2022/11/07 06:29:26;;;;;;;10.38;3.83;;;11.00;99.90;;;;;;5135524;27;20075;-67
2022/11/07 06:31:51;;;;;;;12.55;4.65;;;10.80;99.90;;;;;;5116780;27;20482;-67
2022/11/07 06:34:17;;;;;;;6.88;3.90;;;10.70;99.90;;;;;;5135312;27;20475;-67
2022/11/07 06:36:43;;;;;;;7.30;3.38;;;10.80;99.90;;;;;;5135087;27;20046;-67
2022/11/07 06:39:09;;;;;;;9.05;3.72;;;11.00;99.90;;;;;;5100312;27;20078;-67
2022/11/07 06:41:34;;;;;;;11.75;6.20;;;10.80;99.90;;;;;;5135299;27;20046;-67
2022/11/07 06:44:00;;;;;;;8.80;4.13;;;10.90;99.90;;;;;;5135294;27;20043;-67
2022/11/07 06:46:25;;;;;;;8.45;4.00;;;10.80;99.90;;;;;;5116792;27;20043;-67
2022/11/07 06:48:51;;;;;;;7.20;3.50;;;10.80;99.90;;;;;;5134993;27;20035;-67
2022/11/07 06:51:17;;;;;;;7.97;3.10;;;11.00;99.90;;;;;;5134964;27;20131;-67
2022/11/07 06:53:43;;;;;;;6.25;3.65;;;10.80;99.90;;;;;;5135190;27;20081;-67
2022/11/07 06:56:13;;;;;;;8.98;3.22;;;10.80;99.90;;;;;;5135302;27;20431;-67
2022/11/07 06:58:38;;;;;;;9.85;3.65;;;10.60;99.90;;;;;;5134888;27;20399;-67
2022/11/07 07:01:07;;;;;;;8.02;3.30;;;10.80;99.90;;;;;;5134290;27;20042;-67
2022/11/07 07:03:33;;;;;;;4.88;2.90;;;11.20;99.90;;;;;;5116754;27;20079;-68
2022/11/07 07:06:03;;;;;;;6.40;3.17;;;11.00;99.90;;;;;;5134747;27;20139;-67
2022/11/07 07:08:29;;;;;;;6.25;3.47;;;10.70;99.90;;;;;;5116780;27;20051;-67
2022/11/07 07:10:55;;;;;;;9.30;2.95;;;10.80;99.90;;;;;;5134740;27;20122;-66
2022/11/07 07:13:21;;;;;;;7.65;2.83;;;11.10;99.90;;;;;;5134803;27;20075;-67
2022/11/07 07:15:54;;;;;;;7.35;4.03;;;10.80;99.90;;;;;;5116347;27;20047;-67
2022/11/07 07:18:20;;;;;;;13.45;6.70;;;10.70;99.90;;;;;;5134674;27;20059;-67
2022/11/07 07:20:48;;;;;;;11.45;7.03;;;10.70;99.90;;;;;;5099887;28;20077;-67
2022/11/07 07:23:14;;;;;;;11.00;6.90;;;10.70;99.90;;;;;;5116474;27;20096;-67
2022/11/07 07:25:40;;;;;;;10.93;7.30;;;10.70;99.90;;;;;;5134657;27;20047;-67
2022/11/07 07:28:05;;;;;;;9.88;6.82;;;10.70;99.90;;;;;;5116656;27;20120;-67
2022/11/07 07:30:31;;;;;;;8.38;4.78;;;11.00;99.90;;;;;;5115525;27;20043;-67
2022/11/07 07:32:57;;;;;;;10.10;4.70;;;10.90;99.90;;;;;;5116068;27;20043;-67
2022/11/07 07:35:22;;;;;;;8.70;4.10;;;10.70;99.90;;;;;;5082682;27;20088;-67
2022/11/07 07:37:50;;;;;;;9.98;4.20;;;10.80;99.90;;;;;;5099075;28;20083;-67
2022/11/07 07:40:15;;;;;;;12.48;4.85;;;10.80;99.90;;;;;;5116123;27;20555;-67
2022/11/07 07:42:42;;;;;;;10.60;5.30;;;10.70;99.90;;;;;;5134415;27;20059;-67
2022/11/07 07:45:13;;;;;;;11.82;4.88;;;10.70;99.90;;;;;;5116328;28;20137;-67
2022/11/07 07:47:39;;;;;;;9.57;4.93;;;10.70;99.90;;;;;;5134118;28;20043;-67
2022/11/07 07:50:08;;;;;;;11.30;4.47;;;10.70;99.90;;;;;;5116023;28;20501;-67
2022/11/07 07:52:33;;;;;;;11.18;4.43;;;10.80;99.90;;;;;;5134232;28;20048;-67
2022/11/07 07:54:59;;;;;;;13.25;5.70;;;11.00;99.90;;;;;;5116041;28;20043;-67
2022/11/07 07:57:25;;;;;;;11.85;5.20;;;10.70;99.90;;;;;;5115932;28;20043;-67
2022/11/07 07:59:50;;;;;;;9.73;4.47;;;11.00;99.90;;;;;;5134033;28;20055;-67
2022/11/07 08:02:16;;;;;;;9.73;4.72;;;10.80;99.90;;;;;;5115232;28;20057;-67
2022/11/07 08:04:42;;;;;;;12.00;5.47;;;10.90;99.90;;;;;;5115865;28;20043;-67
2022/11/07 08:07:08;;;;;;;13.43;5.47;;;10.80;99.90;;;;;;5134098;28;20076;-67
2022/11/07 08:09:37;;;;;;;16.75;5.22;;;10.80;99.90;;;;;;5134915;27;20070;-68
2022/11/07 08:12:09;;;;;;;11.25;4.82;;;10.80;99.90;;;;;;5120347;27;20043;-67
2022/11/07 08:14:34;;;;;;;10.60;4.82;;;10.80;99.90;;;;;;5137877;27;20081;-68
2022/11/07 08:17:00;;;;;;;15.55;5.25;;;10.80;99.90;;;;;;5119428;27;20055;-68
2022/11/07 08:19:26;;;;;;;9.48;4.60;;;10.80;99.90;;;;;;5138084;27;20088;-68
2022/11/07 08:21:52;;;;;;;8.98;4.80;;;10.90;99.90;;;;;;5138155;27;20042;-68
2022/11/07 08:24:17;;;;;;;10.18;4.80;;;10.80;99.90;;;;;;5137958;27;20443;-67
2022/11/07 08:26:45;;;;;;;11.93;5.00;;;11.10;99.90;;;;;;5102793;27;20104;-68
2022/11/07 08:29:10;;;;;;;17.52;5.53;;;10.90;99.90;;;;;;5137979;27;20039;-68
2022/11/07 08:31:36;;;;;;;10.38;5.10;;;11.00;99.90;;;;;;5137724;27;20049;-68
2022/11/07 08:34:02;;;;;;;10.85;5.40;;;10.80;99.90;;;;;;5119611;27;20061;-68
2022/11/07 08:36:28;;;;;;;14.35;5.28;;;10.80;99.90;;;;;;5119803;27;20043;-68
2022/11/07 08:38:54;;;;;;;12.90;5.13;;;11.10;99.90;;;;;;5138042;27;20046;-68
2022/11/07 08:41:20;;;;;;;18.40;6.55;;;10.90;99.90;;;;;;5119476;27;20054;-67
2022/11/07 08:43:47;;;;;;;12.32;5.78;;;10.90;99.90;;;;;;5102772;27;20050;-68
2022/11/07 08:46:13;;;;;;;9.77;4.93;;;11.10;99.90;;;;;;5137656;27;20043;-68
2022/11/07 08:48:39;;;;;;;15.35;4.85;;;11.20;99.90;;;;;;5119444;27;20365;-68
2022/11/07 08:51:05;;;;;;;11.75;4.63;;;11.10;99.90;;;;;;5138076;27;20034;-67
2022/11/07 08:53:31;;;;;;;10.02;4.57;;;11.00;99.90;;;;;;5119308;27;20489;-68
2022/11/07 08:56:06;;;;;;;13.95;4.80;;;11.20;99.90;;;;;;5137306;27;20478;-68
2022/11/07 08:58:33;;;;;;;12.85;5.00;;;10.90;99.90;;;;;;5119391;27;20046;-67
2022/11/07 09:00:59;;;;;;;12.23;4.68;;;11.00;99.90;;;;;;5137456;27;20118;-69
2022/11/07 09:03:25;;;;;;;8.20;4.35;;;11.00;99.90;;;;;;5137533;27;20443;-68
2022/11/07 09:05:50;;;;;;;15.23;4.50;;;11.00;99.90;;;;;;5137456;27;20042;-69
2022/11/07 09:08:17;;;;;;;8.98;4.22;;;11.00;99.90;;;;;;5137033;27;20596;-70
2022/11/07 09:10:42;;;;;;;13.20;4.13;;;11.00;99.90;;;;;;5147978;27;20031;-71
2022/11/07 09:13:08;;;;;;;9.90;4.18;;;11.10;99.90;;;;;;5127998;27;20060;-69
2022/11/07 09:15:34;;;;;;;8.95;3.95;;;11.10;99.90;;;;;;5146527;27;20044;-70
2022/11/07 09:18:04;;;;;;;10.48;4.53;;;11.10;99.90;;;;;;5148081;27;20346;-70
2022/11/07 09:20:30;;;;;;;9.27;4.10;;;11.10;99.90;;;;;;5146020;27;20168;-69
2022/11/07 09:22:57;;;;;;;10.85;4.25;;;11.30;99.90;;;;;;5145616;27;20453;-70
2022/11/07 09:25:23;;;;;;;9.80;3.65;;;11.20;99.90;;;;;;5147797;27;20099;-69
2022/11/07 09:27:51;;;;;;;7.50;3.17;;;11.20;99.90;;;;;;5146107;27;20466;-70
2022/11/07 09:30:18;;;;;;;9.63;4.07;;;11.20;99.90;;;;;;5126377;27;20043;-70
2022/11/07 09:32:44;;;;;;;9.20;3.90;;;11.20;99.90;;;;;;5150237;27;20121;-69
2022/11/07 09:35:10;;;;;;;9.95;3.90;;;11.30;99.90;;;;;;5127146;27;20161;-69
2022/11/07 09:37:40;;;;;;;7.35;2.92;;;11.20;99.90;;;;;;5148204;27;20382;-68
2022/11/07 09:40:18;;;;;;;9.27;3.67;;;11.30;99.90;;;;;;5111959;27;20486;-69
2022/11/07 09:42:56;;;;;;;11.23;2.97;;;11.30;99.90;;;;;;5129090;27;20038;-69
2022/11/07 09:45:22;;;;;;;11.98;4.18;;;11.30;99.90;;;;;;5128358;27;20043;-70
2022/11/07 09:47:56;;;;;;;10.63;3.28;;;11.40;99.90;;;;;;5128903;27;20034;-68
2022/11/07 09:50:30;;;;;;;8.52;2.97;;;11.40;99.90;;;;;;5147234;27;20084;-69
2022/11/07 09:53:04;;;;;;;7.22;2.95;;;11.50;99.90;;;;;;5128743;27;20042;-69
2022/11/07 09:55:35;;;;;;;8.32;3.10;;;11.50;99.90;;;;;;5145509;27;20069;-68
2022/11/07 09:58:06;;;;;;;7.53;2.85;;;11.50;99.90;;;;;;5147564;27;20095;-69
2022/11/07 10:00:32;;;;;;;11.55;2.90;;;11.40;99.90;;;;;;5145404;27;20061;-69
2022/11/07 10:02:59;;;;;;;6.82;2.60;;;11.30;99.90;;;;;;5129374;27;20051;-69
2022/11/07 10:05:49;;;;;;;12.77;4.03;;;11.50;99.90;;;;;;5127627;27;20405;-69
2022/11/07 10:08:15;;;;;;;7.95;3.30;;;11.60;99.90;;;;;;5124230;27;20043;-69
2022/11/07 10:11:01;;;;;;;8.70;2.97;;;11.50;99.90;;;;;;5144186;27;20031;-69
2022/11/07 10:13:46;;;;;;;14.80;3.03;;;11.60;99.90;;;;;;5143136;27;20398;-69
2022/11/07 10:16:35;;;;;;;10.88;2.90;;;11.50;99.90;;;;;;5146054;27;20092;-68
2022/11/07 10:19:37;;;;;;;8.88;2.90;;;11.50;99.90;;;;;;5144561;27;20390;-69
2022/11/07 10:22:10;;;;;;;7.40;3.25;;;11.60;99.90;;;;;;5128130;27;20035;-68
2022/11/07 10:25:15;;;;;;;7.00;3.47;;;11.60;99.90;;;;;;5146692;27;20073;-69
2022/11/07 10:27:45;;;;;;;8.40;2.83;;;11.60;99.90;;;;;;5128919;27;20039;-69
2022/11/07 10:30:16;;;;;;;15.75;3.40;;;11.70;99.90;;;;;;5143886;27;20030;-69
2022/11/07 10:32:42;;;;;;;8.65;2.63;;;11.70;99.90;;;;;;5145799;27;20107;-68
2022/11/07 10:35:23;;;;;;;7.88;2.72;;;12.00;99.90;;;;;;5145679;27;20074;-68
2022/11/07 10:38:00;;;;;;;9.27;3.00;;;11.70;99.90;;;;;;5145842;27;20123;-69
2022/11/07 10:40:40;;;;;;;10.68;3.03;;;11.70;99.90;;;;;;5127851;27;20035;-69
2022/11/07 10:43:14;;;;;;;7.25;3.00;;;12.00;99.90;;;;;;5111446;27;20043;-69
2022/11/07 10:45:40;;;;;;;8.90;2.60;;;12.00;99.90;;;;;;5150488;27;20044;-69
2022/11/07 10:48:06;;;;;;;8.73;2.85;;;11.80;99.90;;;;;;5146772;27;20035;-69
2022/11/07 10:50:32;;;;;;;8.05;3.22;;;11.80;99.90;;;;;;5143609;27;20038;-69
2022/11/07 10:53:00;;;;;;;9.73;3.95;;;11.90;99.90;;;;;;5146484;27;20075;-69
2022/11/07 10:55:26;;;;;;;8.85;3.63;;;11.80;99.90;;;;;;5144518;27;20037;-68
2022/11/07 10:58:04;;;;;;;11.65;3.50;;;11.90;99.90;;;;;;5146044;27;20038;-69
2022/11/07 11:00:38;;;;;;;12.02;4.40;;;11.90;99.90;;;;;;5144554;27;20058;-70
2022/11/07 11:03:15;;;;;;;15.20;5.15;;;11.90;99.90;;;;;;5144593;27;20095;-69
2022/11/07 11:05:41;;;;;;;7.13;4.07;;;12.00;99.90;;;;;;5144306;27;20085;-70
2022/11/07 11:08:22;;;;;;;9.38;3.70;;;11.90;99.90;;;;;;5146559;27;20120;-69
2022/11/07 11:10:48;;;;;;;7.15;3.80;;;12.00;99.90;;;;;;5144263;27;20481;-69
2022/11/07 11:13:24;;;;;;;8.80;3.15;;;12.20;99.90;;;;;;5127718;27;20092;-70
2022/11/07 11:15:50;;;;;;;9.48;3.28;;;12.20;99.90;;;;;;5144716;27;20054;-68
2022/11/07 11:18:17;;;;;;;9.00;3.22;;;12.10;99.90;;;;;;5142562;27;20043;-70
2022/11/07 11:20:52;;;;;;;14.98;4.20;;;12.10;99.90;;;;;;5140152;27;20041;-69
2022/11/07 11:23:22;;;;;;;14.57;6.13;;;12.00;99.90;;;;;;5145951;27;20039;-69
2022/11/07 11:25:50;;;;;;;12.75;6.30;;;12.10;99.90;;;;;;5123841;27;20081;-69
2022/11/07 11:28:26;;;;;;;17.75;6.35;;;12.20;99.90;;;;;;5122803;27;20053;-69
2022/11/07 11:30:58;;;;;;;12.65;5.07;;;12.20;99.90;;;;;;5143460;27;20074;-70
2022/11/07 11:33:30;;;;;;;13.13;5.05;;;12.20;99.90;;;;;;5120720;27;20482;-69
2022/11/07 11:36:03;;;;;;;12.43;3.55;;;12.10;99.90;;;;;;5143180;27;20543;-69
2022/11/07 11:38:35;;;;;;;11.80;4.53;;;12.20;99.90;;;;;;5129813;27;20054;-69
2022/11/07 11:41:28;;;;;;;9.27;3.00;;;12.20;99.90;;;;;;5142633;27;20092;-69
2022/11/07 11:44:02;;;;;;;11.50;4.90;;;12.30;99.90;;;;;;5141225;27;20151;-69
2022/11/07 11:46:56;;;;;;;11.60;5.45;;;12.30;99.90;;;;;;5125348;27;20062;-69
2022/11/07 11:49:30;;;;;;;14.13;5.78;;;12.30;99.90;;;;;;5144813;27;20398;-69
2022/11/07 11:52:17;;;;;;;13.32;4.50;;;12.30;99.90;;;;;;5125905;27;20538;-69
2022/11/07 11:54:44;;;;;;;10.25;3.65;;;12.10;99.90;;;;;;5124472;27;20447;-69
2022/11/07 11:57:19;;;;;;;8.52;3.25;;;12.30;99.90;;;;;;5125154;27;20038;-69
2022/11/07 12:00:03;;;;;;;11.68;3.20;;;12.40;99.90;;;;;;5124529;27;20038;-69
2022/11/07 12:03:03;;;;;;;9.75;3.47;;;13.30;99.90;;;;;;5142681;27;20039;-69
2022/11/07 12:05:49;;;;;;;11.05;3.45;;;12.40;99.90;;;;;;5143629;27;20043;-69
2022/11/07 12:08:30;;;;;;;6.40;2.28;;;12.50;99.90;;;;;;5115128;27;20051;-69
2022/11/07 12:11:12;;;;;;;9.32;2.78;;;12.50;99.90;;;;;;5144279;27;20058;-69
2022/11/07 12:14:23;;;;;;;8.80;2.85;;;12.50;99.90;;;;;;5144587;27;20051;-69
2022/11/07 12:16:54;;;;;;;9.88;5.07;;;12.40;99.90;;;;;;5026403;27;20050;-68
2022/11/07 12:19:38;;;;;;;10.70;3.70;;;12.60;99.90;;;;;;5142097;27;20473;-70
2022/11/07 12:22:25;;;;;;;11.82;3.20;;;12.50;99.90;;;;;;5142508;27;20044;-70
2022/11/07 12:24:51;;;;;;;5.95;2.78;;;12.60;99.90;;;;;;5143485;27;20051;-69
2022/11/07 12:27:45;;;;;;;8.30;2.70;;;12.60;99.90;;;;;;5123704;27;20456;-69
2022/11/07 12:30:49;;;;;;;7.95;2.75;;;12.70;99.90;;;;;;5143238;27;20126;-69
2022/11/07 12:33:23;;;;;;;9.73;2.72;;;12.70;99.90;;;;;;5105183;27;20051;-69
2022/11/07 12:36:12;;;;;;;10.93;2.92;;;12.80;99.90;;;;;;5125017;27;20051;-69
2022/11/07 12:39:10;;;;;;;9.15;2.10;;;12.80;99.90;;;;;;5144417;27;20117;-69
2022/11/07 12:41:57;;;;;;;6.63;2.45;;;12.80;99.90;;;;;;5134067;27;20131;-69
2022/11/07 12:44:26;;;;;;;5.28;2.50;;;12.80;99.90;;;;;;5142332;27;20051;-70
2022/11/07 12:47:00;;;;;;;7.95;2.58;;;12.90;99.90;;;;;;5143203;27;20478;-69
2022/11/07 12:49:41;;;;;;;10.00;3.83;;;13.20;99.90;;;;;;5124084;27;20042;-70
2022/11/07 12:52:39;;;;;;;9.52;4.68;;;13.00;99.90;;;;;;5125675;27;20046;-70
2022/11/07 12:55:28;;;;;;;7.57;3.67;;;13.00;99.90;;;;;;5072078;27;20054;-71
2022/11/07 12:57:54;;;;;;;7.35;3.78;;;13.10;99.90;;;;;;5109650;27;20058;-71
2022/11/07 13:00:23;;;;;;;10.20;3.17;;;13.40;99.90;;;;;;5129185;27;20085;-71
2022/11/07 13:03:10;;;;;;;8.77;3.25;;;13.10;99.90;;;;;;5127004;27;20404;-71
2022/11/07 13:06:10;;;;;;;7.18;2.58;;;13.40;99.90;;;;;;5111714;27;20103;-70
2022/11/07 13:08:48;;;;;;;6.00;2.30;;;13.20;99.90;;;;;;5128280;27;20046;-71
2022/11/07 13:11:42;;;;;;;6.82;2.13;;;13.20;99.90;;;;;;5147160;27;20038;-71
2022/11/07 13:14:18;;;;;;;5.13;2.53;;;13.20;99.90;;;;;;5127288;27;20038;-70